Time;durP1;ratioP1;P1;durP2;ratioP2;P2;SDS_P1;SDS_P2;PMS_P1;PMS_P2;Temp;Humidity;BMP_temperature;BMP_pressure;BME280_temperature;BME280_humidity;BME280_pressure;Samples;Min_cycle;Max_cycle;Signal;HPM_P1;HPM_P2
2023/01/10 00:00:02;;;;;;;5.30;2.30;;;9.40;71.90;;;;;;5045871;28;20041;-51
2023/01/10 00:02:30;;;;;;;7.68;2.30;;;9.40;71.80;;;;;;5049965;28;20084;-48
2023/01/10 00:04:57;;;;;;;6.03;2.33;;;9.40;71.70;;;;;;5050079;28;20405;-52
2023/01/10 00:07:29;;;;;;;7.60;2.78;;;9.50;71.70;;;;;;5036372;28;20095;-50
2023/01/10 00:09:58;;;;;;;5.67;2.37;;;9.50;71.50;;;;;;5047812;28;20075;-48
2023/01/10 00:15:10;;;;;;;4.03;1.80;;;9.50;71.30;;;;;;5049895;28;20115;-48
2023/01/10 00:17:36;;;;;;;6.03;2.17;;;9.50;71.10;;;;;;5043572;28;20068;-49
2023/01/10 00:20:06;;;;;;;8.80;2.70;;;9.50;71.10;;;;;;5049790;28;20052;-48
2023/01/10 00:22:35;;;;;;;10.80;2.28;;;9.50;71.00;;;;;;5049490;28;20148;-48
2023/01/10 00:25:07;;;;;;;6.90;2.53;;;9.60;71.00;;;;;;5049150;28;20045;-49
2023/01/10 00:27:37;;;;;;;10.60;2.80;;;9.60;70.90;;;;;;5044237;28;20120;-49
2023/01/10 00:30:12;;;;;;;9.90;3.07;;;9.60;70.80;;;;;;5050188;28;20096;-48
2023/01/10 00:32:40;;;;;;;5.78;2.15;;;9.60;70.50;;;;;;5043706;28;20045;-52
2023/01/10 00:35:08;;;;;;;3.97;2.33;;;9.60;70.50;;;;;;5049135;28;20041;-48
2023/01/10 00:37:34;;;;;;;8.10;2.72;;;9.60;70.50;;;;;;5050190;28;20065;-51
2023/01/10 00:40:01;;;;;;;7.78;2.65;;;9.50;70.40;;;;;;5049778;28;20148;-48
2023/01/10 00:45:15;;;;;;;6.75;2.53;;;9.50;70.40;;;;;;5048004;28;20382;-50
2023/01/10 00:47:42;;;;;;;8.38;2.28;;;9.50;70.30;;;;;;5046250;28;20037;-49
2023/01/10 00:50:10;;;;;;;8.82;3.22;;;9.50;70.30;;;;;;5049473;28;20044;-48
2023/01/10 00:52:41;;;;;;;7.82;2.08;;;9.50;70.10;;;;;;5048877;28;20047;-48
2023/01/10 00:55:22;;;;;;;5.20;2.47;;;9.50;70.00;;;;;;5045202;28;20096;-49
2023/01/10 00:57:48;;;;;;;9.70;2.97;;;9.40;69.90;;;;;;5043937;28;20061;-50
2023/01/10 01:00:15;;;;;;;7.57;2.72;;;9.30;69.80;;;;;;5047335;28;20041;-49
2023/01/10 01:02:48;;;;;;;8.70;3.28;;;9.30;69.80;;;;;;5028412;28;20044;-50
2023/01/10 01:05:15;;;;;;;5.40;2.33;;;9.30;69.80;;;;;;5045586;28;20471;-51
2023/01/10 01:07:42;;;;;;;6.60;2.05;;;9.20;69.80;;;;;;5049404;28;20128;-52
2023/01/10 01:10:27;;;;;;;7.05;2.88;;;9.20;69.80;;;;;;5049231;28;20049;-52
2023/01/10 01:12:58;;;;;;;6.63;2.78;;;9.20;69.90;;;;;;5048453;28;20123;-51
2023/01/10 01:15:28;;;;;;;4.43;2.33;;;9.10;69.80;;;;;;5042683;28;20045;-49
2023/01/10 01:17:55;;;;;;;7.45;2.97;;;9.10;69.90;;;;;;5049110;28;20045;-50
2023/01/10 01:20:21;;;;;;;4.38;2.70;;;9.00;69.90;;;;;;5048241;28;20629;-52
2023/01/10 01:22:53;;;;;;;7.03;2.85;;;9.00;69.90;;;;;;5046490;28;20041;-52
2023/01/10 01:25:22;;;;;;;8.73;2.83;;;8.90;69.90;;;;;;5046064;28;20045;-51
2023/01/10 01:27:51;;;;;;;11.18;3.58;;;8.90;69.90;;;;;;5049130;28;20041;-51
2023/01/10 01:30:22;;;;;;;4.70;2.70;;;8.90;69.90;;;;;;5049053;28;20525;-48
2023/01/10 01:32:49;;;;;;;8.43;2.78;;;8.80;69.90;;;;;;5042909;28;20528;-51
2023/01/10 01:35:16;;;;;;;5.68;2.50;;;8.80;70.00;;;;;;5048965;28;20045;-51
2023/01/10 01:37:43;;;;;;;5.95;2.92;;;8.80;70.10;;;;;;5049324;28;20127;-49
2023/01/10 01:40:13;;;;;;;9.95;3.22;;;8.70;70.10;;;;;;5045465;28;20054;-50
2023/01/10 01:42:40;;;;;;;6.15;3.15;;;8.70;70.20;;;;;;5045181;28;20041;-51
2023/01/10 01:45:13;;;;;;;10.38;3.33;;;8.70;70.20;;;;;;5043786;28;20055;-48
2023/01/10 01:47:50;;;;;;;7.90;3.00;;;8.70;70.30;;;;;;5048094;28;20034;-51
2023/01/10 01:50:38;;;;;;;6.22;2.63;;;8.60;70.30;;;;;;5046778;28;20056;-52
2023/01/10 01:53:27;;;;;;;7.72;3.28;;;8.60;70.40;;;;;;5045332;28;20045;-50
2023/01/10 01:55:58;;;;;;;8.30;3.17;;;8.60;70.40;;;;;;5049126;28;20571;-52
2023/01/10 01:58:42;;;;;;;13.07;3.58;;;8.60;70.40;;;;;;5037339;28;20401;-51
2023/01/10 02:01:10;;;;;;;9.82;3.55;;;8.50;70.60;;;;;;5041626;28;20056;-49
2023/01/10 02:03:41;;;;;;;8.00;3.00;;;8.50;70.50;;;;;;5041108;28;20040;-51
2023/01/10 02:06:08;;;;;;;5.15;2.83;;;8.50;70.40;;;;;;5031508;28;20099;-49
2023/01/10 02:08:36;;;;;;;7.82;3.30;;;8.50;70.50;;;;;;5047683;28;20056;-50
2023/01/10 02:11:10;;;;;;;7.80;3.45;;;8.50;70.60;;;;;;5045777;28;20041;-51
2023/01/10 02:13:41;;;;;;;11.02;3.15;;;8.50;70.80;;;;;;5044918;28;20051;-51
2023/01/10 02:16:10;;;;;;;6.55;2.80;;;8.50;70.80;;;;;;5044778;28;20051;-49
2023/01/10 02:18:42;;;;;;;5.53;2.97;;;8.50;70.80;;;;;;5044116;28;20120;-53
2023/01/10 02:21:31;;;;;;;10.20;3.25;;;8.50;70.70;;;;;;5045168;28;20127;-50
2023/01/10 02:24:32;;;;;;;7.30;2.80;;;8.50;70.60;;;;;;5048310;28;20061;-50
2023/01/10 02:27:13;;;;;;;10.07;2.80;;;8.50;70.70;;;;;;5046233;28;20057;-51
2023/01/10 02:29:59;;;;;;;9.07;3.25;;;8.50;70.70;;;;;;5044131;28;20487;-52
2023/01/10 02:32:41;;;;;;;9.27;2.78;;;8.50;70.60;;;;;;5045366;28;20075;-50
2023/01/10 02:35:48;;;;;;;6.85;2.55;;;8.50;70.50;;;;;;5051940;28;20501;-49
2023/01/10 02:38:50;;;;;;;7.95;2.70;;;8.50;70.40;;;;;;5048544;28;20133;-48
2023/01/10 02:41:38;;;;;;;6.40;3.40;;;8.50;70.40;;;;;;5051522;28;20559;-48
2023/01/10 02:44:17;;;;;;;6.07;2.72;;;8.50;70.30;;;;;;5051614;28;20488;-48
2023/01/10 02:46:47;;;;;;;4.95;2.33;;;8.40;70.30;;;;;;5052478;28;20055;-49
2023/01/10 02:49:15;;;;;;;10.60;2.85;;;8.40;70.20;;;;;;5047691;28;20040;-52
2023/01/10 02:51:41;;;;;;;10.07;3.10;;;8.30;70.20;;;;;;5051853;28;20049;-51
2023/01/10 02:54:13;;;;;;;7.18;2.78;;;8.30;70.30;;;;;;5050418;28;20049;-52
2023/01/10 02:56:43;;;;;;;7.55;2.47;;;8.30;70.30;;;;;;5047506;28;20057;-49
2023/01/10 02:59:13;;;;;;;8.30;2.83;;;8.30;70.30;;;;;;5050108;28;20049;-48
2023/01/10 03:02:07;;;;;;;5.90;3.08;;;8.20;70.20;;;;;;5052002;28;20073;-47
2023/01/10 03:04:48;;;;;;;6.03;2.70;;;8.30;70.40;;;;;;5033205;28;20045;-49
2023/01/10 03:07:21;;;;;;;7.55;2.78;;;8.30;70.50;;;;;;5048738;28;20084;-48
2023/01/10 03:10:00;;;;;;;5.45;2.75;;;8.30;70.50;;;;;;5050866;28;20051;-48
2023/01/10 03:12:38;;;;;;;6.90;2.80;;;8.30;70.60;;;;;;5043022;28;20543;-51
2023/01/10 03:15:17;;;;;;;5.38;1.92;;;8.20;70.50;;;;;;5044433;28;20536;-52
2023/01/10 03:17:50;;;;;;;5.43;2.50;;;8.30;70.60;;;;;;5047956;28;20040;-52
2023/01/10 03:20:20;;;;;;;8.65;2.83;;;8.20;70.40;;;;;;5050687;28;20417;-48
2023/01/10 03:22:54;;;;;;;8.45;2.65;;;8.20;70.40;;;;;;5049707;28;20095;-52
2023/01/10 03:25:26;;;;;;;7.43;2.75;;;8.20;70.40;;;;;;5045914;28;20052;-52
2023/01/10 03:28:09;;;;;;;7.38;2.53;;;8.20;70.50;;;;;;5051216;28;20056;-48
2023/01/10 03:30:48;;;;;;;6.47;2.83;;;8.20;70.70;;;;;;5044931;28;20041;-52
2023/01/10 03:33:19;;;;;;;6.03;2.40;;;8.30;70.90;;;;;;5046774;28;20067;-48
2023/01/10 03:36:25;;;;;;;6.55;2.65;;;8.30;70.80;;;;;;5045595;28;20562;-48
2023/01/10 03:39:13;;;;;;;9.02;3.47;;;8.30;70.90;;;;;;5045632;28;20123;-52
2023/01/10 03:41:48;;;;;;;7.63;2.60;;;8.40;70.90;;;;;;5044453;28;20136;-50
2023/01/10 03:45:05;;;;;;;6.70;2.38;;;8.40;70.70;;;;;;5047854;28;20040;-51
2023/01/10 03:47:35;;;;;;;7.03;3.15;;;8.50;70.90;;;;;;4927178;29;20142;-51
2023/01/10 03:50:24;;;;;;;6.30;2.92;;;8.50;70.60;;;;;;4950267;28;20047;-52
2023/01/10 03:52:51;;;;;;;5.50;2.65;;;8.50;70.60;;;;;;5021208;28;20063;-49
2023/01/10 03:55:21;;;;;;;10.63;2.90;;;8.60;70.60;;;;;;5045918;28;20059;-48
2023/01/10 03:57:48;;;;;;;11.32;3.10;;;8.60;70.60;;;;;;5050786;28;20079;-49
2023/01/10 04:00:16;;;;;;;8.43;3.28;;;8.60;70.50;;;;;;5050115;28;20069;-51
2023/01/10 04:02:43;;;;;;;10.43;3.08;;;8.60;70.40;;;;;;5044466;28;20439;-48
2023/01/10 04:05:12;;;;;;;6.38;2.53;;;8.70;70.40;;;;;;5050233;28;20037;-48
2023/01/10 04:07:41;;;;;;;8.13;3.17;;;8.70;70.40;;;;;;5050062;28;20116;-50
2023/01/10 04:10:08;;;;;;;10.05;2.58;;;8.70;70.30;;;;;;5048724;28;20049;-52
2023/01/10 04:12:37;;;;;;;6.68;2.80;;;8.70;70.20;;;;;;5038847;28;20052;-50
2023/01/10 04:15:06;;;;;;;9.50;3.65;;;8.70;70.10;;;;;;5050089;28;20497;-49
2023/01/10 04:17:33;;;;;;;6.60;2.70;;;8.70;70.00;;;;;;5049760;28;20037;-50
2023/01/10 04:20:09;;;;;;;9.27;3.13;;;8.80;69.90;;;;;;5046576;28;20091;-48
2023/01/10 04:22:40;;;;;;;6.75;3.30;;;8.80;69.80;;;;;;5043688;28;20041;-48
2023/01/10 04:25:11;;;;;;;8.85;2.47;;;8.70;69.60;;;;;;5049239;28;20459;-49
2023/01/10 04:27:37;;;;;;;6.25;2.80;;;8.70;69.50;;;;;;5049488;28;20043;-49
2023/01/10 04:30:05;;;;;;;7.15;2.88;;;8.70;69.40;;;;;;5042363;28;20113;-50
2023/01/10 04:32:31;;;;;;;13.90;2.65;;;8.60;69.40;;;;;;5044413;28;20053;-52
2023/01/10 04:35:00;;;;;;;10.35;3.05;;;8.60;69.40;;;;;;5039969;28;20045;-49
2023/01/10 04:37:27;;;;;;;7.47;3.03;;;8.60;69.60;;;;;;5041655;28;20541;-50
2023/01/10 04:39:56;;;;;;;7.28;2.83;;;8.50;69.40;;;;;;5049220;28;20045;-47
2023/01/10 04:42:23;;;;;;;11.90;4.07;;;8.50;69.50;;;;;;5042196;28;20043;-48
2023/01/10 04:44:52;;;;;;;8.18;2.78;;;8.50;69.50;;;;;;5049547;28;20044;-49
2023/01/10 04:47:23;;;;;;;12.75;3.28;;;8.40;69.50;;;;;;5049049;28;20036;-51
2023/01/10 04:49:50;;;;;;;7.40;2.88;;;8.40;69.60;;;;;;5042932;28;20053;-48
2023/01/10 04:52:16;;;;;;;11.15;2.88;;;8.40;69.60;;;;;;5048934;28;20048;-48
2023/01/10 04:54:43;;;;;;;7.93;2.95;;;8.30;69.60;;;;;;5049497;28;20045;-47
2023/01/10 04:57:12;;;;;;;8.30;2.85;;;8.30;69.60;;;;;;5048814;28;20085;-52
2023/01/10 04:59:41;;;;;;;10.93;3.28;;;8.30;69.70;;;;;;5043037;28;20051;-51
2023/01/10 05:02:08;;;;;;;10.32;2.47;;;8.30;69.80;;;;;;5049233;28;20420;-50
2023/01/10 05:04:36;;;;;;;13.18;4.07;;;8.20;69.80;;;;;;5049446;28;20041;-47
2023/01/10 05:07:03;;;;;;;6.57;2.85;;;8.20;69.80;;;;;;5048323;28;20037;-48
2023/01/10 05:09:30;;;;;;;6.65;2.33;;;8.20;69.90;;;;;;5041569;28;20041;-48
2023/01/10 05:11:57;;;;;;;9.77;3.55;;;8.20;69.90;;;;;;5049907;28;20405;-47
2023/01/10 05:14:26;;;;;;;7.95;2.60;;;8.20;70.00;;;;;;5043020;28;20049;-48
2023/01/10 05:16:55;;;;;;;10.77;3.40;;;8.10;70.00;;;;;;5049345;28;20057;-47
2023/01/10 05:19:26;;;;;;;12.52;3.47;;;8.10;70.00;;;;;;5046387;28;20045;-51
2023/01/10 05:21:55;;;;;;;15.23;3.97;;;8.10;70.10;;;;;;5049883;28;20122;-47
2023/01/10 05:24:21;;;;;;;12.55;3.13;;;8.10;70.20;;;;;;5048936;28;20055;-52
2023/01/10 05:26:48;;;;;;;9.68;3.55;;;8.10;70.20;;;;;;5047234;28;20111;-52
2023/01/10 05:29:15;;;;;;;8.77;2.97;;;8.00;70.30;;;;;;5047463;28;20048;-48
2023/01/10 05:31:44;;;;;;;10.25;3.50;;;8.00;70.40;;;;;;5046608;28;20048;-48
2023/01/10 05:34:11;;;;;;;14.38;3.50;;;8.00;70.40;;;;;;5046561;28;20037;-48
2023/01/10 05:36:39;;;;;;;8.40;3.00;;;8.00;70.40;;;;;;5049924;28;20037;-48
2023/01/10 05:39:06;;;;;;;15.20;3.17;;;8.00;70.30;;;;;;5048350;28;20042;-50
2023/01/10 05:41:32;;;;;;;7.78;3.53;;;8.00;70.40;;;;;;5042120;28;20041;-48
2023/01/10 05:44:02;;;;;;;13.07;3.70;;;8.00;70.40;;;;;;5030782;28;20507;-51
2023/01/10 05:46:31;;;;;;;9.07;3.92;;;8.00;70.40;;;;;;5043972;28;20045;-48
2023/01/10 05:48:58;;;;;;;16.63;3.90;;;8.00;70.50;;;;;;5048517;28;20045;-48
2023/01/10 05:51:28;;;;;;;11.02;3.08;;;8.00;70.50;;;;;;5041558;28;20044;-52
2023/01/10 05:53:56;;;;;;;10.30;3.30;;;8.00;70.50;;;;;;5029980;28;20045;-52
2023/01/10 05:56:26;;;;;;;11.20;4.05;;;8.00;70.50;;;;;;5045416;28;20106;-49
2023/01/10 05:58:53;;;;;;;15.50;3.42;;;8.00;70.60;;;;;;5041311;28;20068;-50
2023/01/10 06:01:33;;;;;;;11.25;3.38;;;7.90;71.20;;;;;;5039807;28;20051;-49
2023/01/10 06:04:02;;;;;;;16.25;4.05;;;8.00;70.60;;;;;;5044870;28;20032;-49
2023/01/10 06:06:29;;;;;;;11.15;3.63;;;7.90;70.70;;;;;;5046260;28;20390;-47
2023/01/10 06:08:58;;;;;;;14.20;3.38;;;7.90;70.70;;;;;;5044617;28;20120;-50
2023/01/10 06:11:28;;;;;;;14.63;4.20;;;8.00;71.00;;;;;;5042622;28;20436;-48
2023/01/10 06:13:58;;;;;;;13.13;3.67;;;8.00;71.00;;;;;;5043844;28;20040;-49
2023/01/10 06:16:25;;;;;;;11.75;3.35;;;8.00;71.10;;;;;;5044539;28;20520;-48
2023/01/10 06:18:51;;;;;;;13.70;3.67;;;8.00;71.10;;;;;;5043979;28;20084;-48
2023/01/10 06:21:18;;;;;;;11.70;3.85;;;8.00;71.10;;;;;;5044960;28;20037;-52
2023/01/10 06:23:47;;;;;;;11.55;4.20;;;8.10;71.00;;;;;;5045387;28;20040;-50
2023/01/10 06:26:17;;;;;;;13.48;4.30;;;8.10;71.00;;;;;;5045440;28;20048;-52
2023/01/10 06:28:44;;;;;;;8.88;3.88;;;8.10;70.90;;;;;;5036183;28;20032;-52
2023/01/10 06:31:10;;;;;;;13.20;4.63;;;8.20;70.90;;;;;;5042629;28;20037;-49
2023/01/10 06:33:37;;;;;;;11.57;4.20;;;8.20;70.90;;;;;;5040454;28;20051;-53
2023/01/10 06:36:04;;;;;;;14.75;3.85;;;8.20;70.90;;;;;;5049553;28;20419;-52
2023/01/10 06:38:31;;;;;;;10.57;3.35;;;8.20;70.90;;;;;;5049458;28;20053;-50
2023/01/10 06:40:57;;;;;;;10.02;3.85;;;8.20;70.80;;;;;;5046675;28;20704;-49
2023/01/10 06:43:24;;;;;;;7.18;3.25;;;8.20;70.80;;;;;;5046775;28;20566;-53
2023/01/10 06:45:51;;;;;;;14.95;3.78;;;8.20;70.70;;;;;;5044581;28;20440;-53
2023/01/10 06:48:20;;;;;;;14.82;4.90;;;8.20;70.70;;;;;;5043085;28;20099;-50
2023/01/10 06:50:48;;;;;;;14.70;3.88;;;8.20;70.60;;;;;;5040235;28;20409;-48
2023/01/10 06:53:15;;;;;;;13.15;4.35;;;8.20;70.50;;;;;;5043484;28;20148;-52
2023/01/10 06:55:42;;;;;;;9.73;4.07;;;8.20;70.50;;;;;;5043952;28;20452;-50
2023/01/10 06:58:17;;;;;;;14.27;4.47;;;8.20;70.50;;;;;;5024179;28;20046;-51
2023/01/10 07:00:43;;;;;;;13.75;4.32;;;8.20;70.50;;;;;;5042769;28;20132;-51
2023/01/10 07:03:10;;;;;;;13.90;3.53;;;8.10;70.40;;;;;;5043393;28;20123;-52
2023/01/10 07:05:37;;;;;;;11.90;4.00;;;8.10;70.40;;;;;;5043056;28;20044;-54
2023/01/10 07:08:04;;;;;;;13.05;4.22;;;8.10;70.50;;;;;;5048659;28;20045;-53
2023/01/10 07:10:30;;;;;;;13.95;4.35;;;8.10;70.50;;;;;;5045969;28;20298;-51
2023/01/10 07:12:58;;;;;;;12.20;4.18;;;8.10;70.60;;;;;;5043657;28;20040;-52
2023/01/10 07:15:25;;;;;;;15.77;4.57;;;8.10;70.60;;;;;;5043650;28;20041;-48
2023/01/10 07:17:58;;;;;;;12.82;4.68;;;8.00;70.50;;;;;;5041692;28;20448;-50
2023/01/10 07:20:25;;;;;;;17.50;4.75;;;8.00;70.70;;;;;;5042888;28;20088;-48
2023/01/10 07:22:59;;;;;;;9.50;4.38;;;8.00;70.60;;;;;;5049361;28;20072;-48
2023/01/10 07:25:27;;;;;;;11.30;4.80;;;8.00;70.70;;;;;;5049314;28;20036;-47
2023/01/10 07:27:54;;;;;;;12.25;4.93;;;8.00;70.70;;;;;;5046180;28;20049;-48
2023/01/10 07:30:22;;;;;;;19.15;5.25;;;8.00;70.70;;;;;;5046678;28;20116;-49
2023/01/10 07:32:55;;;;;;;22.38;5.88;;;7.90;70.70;;;;;;5043134;28;20452;-48
2023/01/10 07:35:22;;;;;;;17.92;5.00;;;7.90;70.80;;;;;;5046523;28;20041;-48
2023/01/10 07:37:48;;;;;;;18.25;4.15;;;7.90;70.70;;;;;;5043134;28;20041;-47
2023/01/10 07:40:16;;;;;;;16.95;4.93;;;7.90;70.80;;;;;;5045966;28;20056;-48
2023/01/10 07:42:43;;;;;;;11.38;3.45;;;7.90;70.80;;;;;;5043977;28;20045;-52
2023/01/10 07:45:10;;;;;;;13.13;4.50;;;7.90;70.90;;;;;;5049556;28;20043;-49
2023/01/10 07:47:37;;;;;;;11.23;3.75;;;7.80;70.90;;;;;;5045375;28;20400;-50
2023/01/10 07:50:04;;;;;;;15.60;4.32;;;7.80;70.80;;;;;;5047770;28;20045;-50
2023/01/10 07:52:32;;;;;;;12.65;3.75;;;7.80;70.90;;;;;;5049357;28;20041;-49
2023/01/10 07:54:58;;;;;;;9.43;3.15;;;7.80;71.00;;;;;;5049711;28;20041;-48
2023/01/10 07:57:25;;;;;;;14.55;4.25;;;7.80;71.00;;;;;;5042723;28;20417;-48
2023/01/10 07:59:52;;;;;;;10.27;3.63;;;7.80;71.10;;;;;;5049584;28;20049;-48
2023/01/10 08:02:19;;;;;;;10.25;3.67;;;7.80;71.10;;;;;;5049006;28;20435;-50
2023/01/10 08:04:45;;;;;;;16.45;4.03;;;7.80;71.20;;;;;;5044832;28;20042;-51
2023/01/10 08:07:12;;;;;;;10.95;3.72;;;7.80;71.20;;;;;;5038659;28;20048;-47
2023/01/10 08:09:39;;;;;;;12.77;3.88;;;7.80;71.20;;;;;;5045829;28;20052;-50
2023/01/10 08:12:06;;;;;;;13.93;3.10;;;7.80;71.30;;;;;;5039536;28;20336;-51
2023/01/10 08:14:32;;;;;;;15.57;3.55;;;7.80;71.30;;;;;;5033103;28;20037;-47
2023/01/10 08:16:59;;;;;;;11.93;4.28;;;7.80;71.30;;;;;;5042215;28;20045;-47
2023/01/10 08:19:26;;;;;;;13.48;4.22;;;7.80;71.30;;;;;;5048713;28;20055;-49
2023/01/10 08:21:54;;;;;;;8.27;3.45;;;7.80;71.30;;;;;;5048465;28;20055;-53
2023/01/10 08:24:20;;;;;;;17.38;3.97;;;7.80;71.30;;;;;;5041566;28;20501;-50
2023/01/10 08:26:48;;;;;;;10.93;3.53;;;7.80;71.30;;;;;;5044176;28;20128;-52
2023/01/10 08:29:17;;;;;;;14.45;3.90;;;7.80;71.40;;;;;;5038616;28;20084;-50
2023/01/10 08:31:44;;;;;;;11.40;3.15;;;7.80;71.30;;;;;;5041834;28;20049;-50
2023/01/10 08:34:13;;;;;;;9.57;3.65;;;7.80;71.40;;;;;;5028411;28;20126;-49
2023/01/10 08:36:39;;;;;;;12.68;3.22;;;7.80;71.40;;;;;;5045235;28;20037;-51
2023/01/10 08:39:06;;;;;;;11.02;3.45;;;7.80;71.40;;;;;;5048476;28;20049;-49
2023/01/10 08:41:33;;;;;;;12.80;4.00;;;7.90;71.50;;;;;;5049240;28;20044;-50
2023/01/10 08:43:59;;;;;;;12.88;3.67;;;7.90;72.20;;;;;;5046681;28;20370;-48
2023/01/10 08:46:26;;;;;;;13.32;4.00;;;7.90;71.50;;;;;;5044104;28;20047;-52
2023/01/10 08:48:53;;;;;;;8.57;3.33;;;7.90;71.50;;;;;;5041168;28;20044;-47
2023/01/10 08:51:19;;;;;;;11.75;3.63;;;8.00;71.50;;;;;;5043915;28;20059;-48
2023/01/10 08:53:49;;;;;;;14.23;4.00;;;8.00;71.50;;;;;;5036059;28;20560;-48
2023/01/10 08:56:15;;;;;;;10.15;3.55;;;8.00;71.50;;;;;;5045912;28;20051;-54
2023/01/10 08:58:42;;;;;;;8.93;3.80;;;8.10;71.60;;;;;;5036696;28;20159;-48
2023/01/10 09:01:10;;;;;;;13.70;3.60;;;8.10;71.50;;;;;;5049189;28;20055;-53
2023/01/10 09:03:38;;;;;;;11.50;3.33;;;8.20;71.60;;;;;;5043454;28;20572;-53
2023/01/10 09:06:07;;;;;;;8.73;3.15;;;8.20;71.50;;;;;;5049423;28;20041;-51
2023/01/10 09:08:37;;;;;;;12.73;3.83;;;8.30;71.50;;;;;;5047520;28;20041;-51
2023/01/10 09:11:05;;;;;;;10.85;3.83;;;8.30;71.50;;;;;;5049770;28;20640;-50
2023/01/10 09:13:32;;;;;;;11.90;4.13;;;8.40;71.40;;;;;;5044230;28;20072;-48
2023/01/10 09:15:59;;;;;;;9.68;3.75;;;8.40;71.30;;;;;;5048231;28;20063;-49
2023/01/10 09:18:26;;;;;;;13.15;4.00;;;8.40;71.20;;;;;;5048190;28;20081;-47
2023/01/10 09:20:53;;;;;;;15.13;3.88;;;8.50;71.10;;;;;;5040445;28;20052;-52
2023/01/10 09:23:21;;;;;;;11.15;3.65;;;8.60;71.10;;;;;;5041105;28;20129;-48
2023/01/10 09:25:50;;;;;;;12.43;3.63;;;8.60;70.90;;;;;;5040804;28;20048;-51
2023/01/10 09:28:17;;;;;;;14.52;4.20;;;8.60;70.80;;;;;;5017275;28;20039;-50
2023/01/10 09:30:45;;;;;;;14.13;3.95;;;8.70;70.70;;;;;;5039139;28;20128;-48
2023/01/10 09:33:12;;;;;;;12.05;3.13;;;8.70;70.70;;;;;;5043227;28;20040;-50
2023/01/10 09:35:42;;;;;;;11.80;3.70;;;8.80;70.70;;;;;;5039179;28;20051;-48
2023/01/10 09:38:13;;;;;;;7.82;3.42;;;8.80;70.50;;;;;;5041720;28;20055;-50
2023/01/10 09:41:03;;;;;;;10.77;3.90;;;8.80;70.90;;;;;;5031300;28;20054;-48
2023/01/10 09:43:49;;;;;;;13.43;3.85;;;8.90;70.40;;;;;;5044693;28;20102;-50
2023/01/10 09:46:27;;;;;;;10.68;3.25;;;9.00;70.40;;;;;;5052764;28;20497;-51
2023/01/10 09:49:21;;;;;;;14.05;4.28;;;9.00;70.50;;;;;;5051218;28;20090;-54
2023/01/10 09:51:51;;;;;;;10.63;3.50;;;9.10;70.20;;;;;;5049672;28;20047;-52
2023/01/10 09:54:26;;;;;;;10.57;3.47;;;9.10;70.10;;;;;;5052179;28;20045;-47
2023/01/10 09:56:55;;;;;;;12.00;3.15;;;9.20;70.00;;;;;;5052976;28;20052;-49
2023/01/10 09:59:35;;;;;;;12.27;3.75;;;9.20;69.90;;;;;;5046961;28;20128;-49
2023/01/10 10:02:33;;;;;;;10.98;4.05;;;9.30;69.80;;;;;;5049504;28;20053;-51
2023/01/10 10:05:25;;;;;;;9.23;3.45;;;9.40;69.70;;;;;;5036544;28;20649;-52
2023/01/10 10:07:55;;;;;;;12.93;3.40;;;9.40;69.40;;;;;;5031055;28;20064;-49
2023/01/10 10:10:37;;;;;;;10.05;3.80;;;9.50;70.20;;;;;;5048752;28;20048;-50
2023/01/10 10:13:25;;;;;;;11.23;3.67;;;9.50;69.30;;;;;;5051659;28;20082;-51
2023/01/10 10:16:15;;;;;;;;;;;9.50;69.10;;;;;;5046654;28;20988;-50
2023/01/10 10:18:56;;;;;;;12.38;3.42;;;9.60;69.30;;;;;;5047033;28;20015;-50
2023/01/10 10:21:38;;;;;;;9.85;3.65;;;9.70;69.00;;;;;;5034750;28;20120;-48
2023/01/10 10:24:22;;;;;;;12.48;3.63;;;9.70;68.80;;;;;;5051277;28;20123;-51
2023/01/10 10:26:56;;;;;;;13.30;3.53;;;9.70;68.80;;;;;;5047379;28;20048;-48
2023/01/10 10:29:47;;;;;;;8.90;3.33;;;9.80;68.80;;;;;;5048768;28;20045;-51
2023/01/10 10:32:38;;;;;;;17.20;3.90;;;9.80;68.40;;;;;;5045735;28;20457;-48
2023/01/10 10:35:34;;;;;;;12.15;3.80;;;9.80;68.30;;;;;;5034242;28;20098;-48
2023/01/10 10:38:12;;;;;;;12.38;3.85;;;9.80;68.30;;;;;;5047283;28;20049;-47
2023/01/10 10:40:42;;;;;;;7.85;3.35;;;9.80;68.30;;;;;;5020950;28;20055;-48
2023/01/10 10:43:21;;;;;;;12.32;3.53;;;9.90;68.40;;;;;;5048558;28;20053;-49
2023/01/10 10:45:54;;;;;;;10.48;3.55;;;9.90;68.50;;;;;;5025400;28;20051;-50
2023/01/10 10:48:28;;;;;;;11.77;3.97;;;9.90;68.60;;;;;;5049203;28;20253;-51
2023/01/10 10:51:12;;;;;;;8.60;2.90;;;10.00;68.30;;;;;;5053123;28;20052;-50
2023/01/10 10:53:41;;;;;;;9.75;3.47;;;10.10;68.20;;;;;;5045076;28;20381;-49
2023/01/10 10:56:14;;;;;;;12.30;3.65;;;10.10;68.20;;;;;;5046340;28;20041;-48
2023/01/10 10:58:43;;;;;;;8.70;3.45;;;10.10;68.00;;;;;;5051327;28;20052;-52
2023/01/10 11:01:13;;;;;;;11.50;3.75;;;10.20;68.00;;;;;;5050146;28;20045;-53
2023/01/10 11:04:07;;;;;;;16.08;3.70;;;10.20;68.00;;;;;;5043679;28;20072;-49
2023/01/10 11:06:37;;;;;;;8.15;3.47;;;10.30;67.70;;;;;;5049144;28;20037;-51
2023/01/10 11:09:05;;;;;;;9.95;4.03;;;10.30;67.90;;;;;;5049728;28;20051;-53
2023/01/10 11:11:39;;;;;;;7.93;2.80;;;10.30;67.80;;;;;;5042938;28;20077;-51
2023/01/10 11:14:07;;;;;;;11.18;3.33;;;10.40;67.70;;;;;;5047322;28;20424;-53
2023/01/10 11:16:43;;;;;;;12.60;3.22;;;10.40;67.50;;;;;;5050068;28;20041;-52
2023/01/10 11:19:30;;;;;;;10.73;3.33;;;10.50;67.30;;;;;;5045151;28;20660;-48
2023/01/10 11:22:04;;;;;;;13.02;3.75;;;10.60;66.90;;;;;;5047813;28;20048;-49
2023/01/10 11:24:32;;;;;;;11.45;3.88;;;10.60;67.20;;;;;;5040735;28;20095;-52
2023/01/10 11:27:13;;;;;;;10.27;4.00;;;10.60;67.20;;;;;;5050677;28;20029;-51
2023/01/10 11:30:08;;;;;;;17.95;3.45;;;10.70;67.00;;;;;;5047968;28;20055;-51
2023/01/10 11:32:38;;;;;;;8.27;3.33;;;10.70;66.60;;;;;;5043807;28;20505;-49
2023/01/10 11:35:28;;;;;;;12.93;3.67;;;10.70;66.90;;;;;;5050057;28;20053;-49
2023/01/10 11:38:17;;;;;;;11.73;2.90;;;10.80;66.50;;;;;;5029313;28;20140;-52
2023/01/10 11:41:21;;;;;;;11.30;3.38;;;10.80;66.20;;;;;;5027462;28;20090;-47
2023/01/10 11:43:48;;;;;;;9.98;2.90;;;10.90;66.20;;;;;;5043701;28;20116;-47
2023/01/10 11:46:20;;;;;;;10.38;3.28;;;10.90;66.60;;;;;;5047584;28;20044;-52
2023/01/10 11:49:11;;;;;;;14.05;4.05;;;10.90;66.40;;;;;;5049422;28;20505;-47
2023/01/10 11:51:56;;;;;;;11.98;3.50;;;11.00;66.10;;;;;;5047664;28;20541;-51
2023/01/10 11:54:27;;;;;;;11.18;3.15;;;11.00;65.80;;;;;;5048799;28;20053;-47
2023/01/10 11:57:13;;;;;;;10.27;3.50;;;11.10;66.10;;;;;;5050503;28;20053;-48
2023/01/10 11:59:56;;;;;;;13.48;3.30;;;11.10;66.00;;;;;;5041889;28;20639;-52
2023/01/10 12:02:27;;;;;;;8.25;2.92;;;11.20;66.10;;;;;;5042315;28;20045;-47
2023/01/10 12:04:58;;;;;;;12.37;3.37;;;11.20;66.00;;;;;;5049789;28;20485;-52
2023/01/10 12:07:25;;;;;;;13.75;3.38;;;11.30;65.80;;;;;;5049465;28;20294;-52
2023/01/10 12:09:58;;;;;;;9.07;3.33;;;11.30;65.50;;;;;;5045863;28;20045;-49
2023/01/10 12:12:25;;;;;;;10.70;2.90;;;11.30;65.20;;;;;;5048936;28;20128;-53
2023/01/10 12:14:54;;;;;;;9.52;2.60;;;11.30;65.30;;;;;;5043100;28;20053;-50
2023/01/10 12:17:24;;;;;;;11.18;3.00;;;11.40;65.20;;;;;;5050848;28;20059;-49
2023/01/10 12:19:57;;;;;;;10.63;2.70;;;11.40;65.20;;;;;;5044161;28;20048;-52
2023/01/10 12:22:30;;;;;;;12.55;2.90;;;11.40;65.30;;;;;;5048287;28;20041;-53
2023/01/10 12:25:00;;;;;;;14.63;3.75;;;11.40;64.90;;;;;;5049629;28;20127;-48
2023/01/10 12:27:28;;;;;;;5.78;2.60;;;11.40;65.00;;;;;;5048153;28;20116;-51
2023/01/10 12:30:05;;;;;;;6.15;2.75;;;11.50;65.00;;;;;;5037180;28;20099;-49
2023/01/10 12:32:40;;;;;;;8.63;2.85;;;11.50;64.70;;;;;;5041420;28;20037;-49
2023/01/10 12:35:14;;;;;;;11.40;3.17;;;11.50;64.70;;;;;;5049446;28;20045;-52
2023/01/10 12:37:49;;;;;;;10.90;2.85;;;11.60;64.80;;;;;;5048414;28;20095;-50
2023/01/10 12:40:15;;;;;;;11.10;3.60;;;11.60;64.80;;;;;;5045420;28;20047;-47
2023/01/10 12:45:53;;;;;;;13.35;3.95;;;11.60;64.40;;;;;;5049679;28;20127;-48
2023/01/10 12:48:40;;;;;;;10.95;3.42;;;11.70;64.40;;;;;;5045109;28;20072;-48
2023/01/10 12:51:12;;;;;;;13.57;3.40;;;11.70;64.10;;;;;;5050381;28;20127;-48
2023/01/10 12:53:48;;;;;;;12.60;3.63;;;11.70;64.50;;;;;;5050147;28;20045;-48
2023/01/10 12:56:18;;;;;;;13.68;4.15;;;11.70;64.40;;;;;;5025113;28;20141;-48
2023/01/10 12:59:02;;;;;;;9.30;2.92;;;11.70;64.20;;;;;;5044449;28;20128;-48
2023/01/10 13:01:39;;;;;;;11.20;3.08;;;11.80;63.90;;;;;;5049466;28;20036;-51
2023/01/10 13:04:09;;;;;;;9.13;2.90;;;11.80;63.60;;;;;;5040919;28;20378;-50
2023/01/10 13:06:41;;;;;;;10.05;3.47;;;11.80;63.70;;;;;;5046634;28;20626;-52
2023/01/10 13:09:20;;;;;;;11.13;2.97;;;11.80;63.80;;;;;;5047313;28;20115;-48
2023/01/10 13:12:05;;;;;;;12.88;4.22;;;11.80;63.50;;;;;;5049601;28;20041;-51
2023/01/10 13:14:58;;;;;;;8.75;2.72;;;11.80;63.40;;;;;;5038157;28;20098;-50
2023/01/10 13:17:39;;;;;;;8.27;2.88;;;11.80;63.20;;;;;;5042313;28;20037;-48
2023/01/10 13:20:15;;;;;;;12.75;3.78;;;11.80;63.30;;;;;;5024765;28;20524;-52
2023/01/10 13:22:47;;;;;;;6.63;2.30;;;11.80;63.30;;;;;;5042114;28;20520;-49
2023/01/10 13:25:19;;;;;;;;;;;11.80;63.40;;;;;;5031392;28;20041;-48